sensor_id;sensor_type;location;lat;lon;timestamp;P1;durP1;ratioP1;P2;durP2;ratioP2
17917;SDS011;9084;50.956;3.106;2024-03-22T00:00:47;15.15;;;12.13;;
17917;SDS011;9084;50.956;3.106;2024-03-22T00:03:13;14.85;;;11.73;;
17917;SDS011;9084;50.956;3.106;2024-03-22T00:05:38;11.52;;;9.82;;
17917;SDS011;9084;50.956;3.106;2024-03-22T00:08:04;11.25;;;9.98;;
17917;SDS011;9084;50.956;3.106;2024-03-22T00:10:34;12.05;;;9.85;;
17917;SDS011;9084;50.956;3.106;2024-03-22T00:12:59;11.35;;;9.90;;
17917;SDS011;9084;50.956;3.106;2024-03-22T00:15:27;12.68;;;9.35;;
17917;SDS011;9084;50.956;3.106;2024-03-22T00:17:53;11.65;;;9.85;;
17917;SDS011;9084;50.956;3.106;2024-03-22T00:20:18;10.73;;;9.63;;
17917;SDS011;9084;50.956;3.106;2024-03-22T00:22:44;11.07;;;9.80;;
17917;SDS011;9084;50.956;3.106;2024-03-22T00:25:09;12.60;;;9.25;;
17917;SDS011;9084;50.956;3.106;2024-03-22T00:27:35;10.70;;;9.00;;
17917;SDS011;9084;50.956;3.106;2024-03-22T00:30:00;11.00;;;8.10;;
17917;SDS011;9084;50.956;3.106;2024-03-22T00:32:26;10.75;;;8.63;;
17917;SDS011;9084;50.956;3.106;2024-03-22T00:34:52;9.93;;;8.93;;
17917;SDS011;9084;50.956;3.106;2024-03-22T00:37:17;9.38;;;8.48;;
17917;SDS011;9084;50.956;3.106;2024-03-22T00:39:47;8.65;;;7.78;;
17917;SDS011;9084;50.956;3.106;2024-03-22T00:42:15;7.28;;;6.60;;
17917;SDS011;9084;50.956;3.106;2024-03-22T00:44:41;7.10;;;6.10;;
17917;SDS011;9084;50.956;3.106;2024-03-22T00:47:06;9.07;;;7.70;;
17917;SDS011;9084;50.956;3.106;2024-03-22T00:49:32;8.45;;;7.50;;
17917;SDS011;9084;50.956;3.106;2024-03-22T00:51:58;7.65;;;6.93;;
17917;SDS011;9084;50.956;3.106;2024-03-22T00:54:26;8.65;;;7.80;;
17917;SDS011;9084;50.956;3.106;2024-03-22T00:56:52;8.00;;;7.30;;
17917;SDS011;9084;50.956;3.106;2024-03-22T00:59:17;7.90;;;7.18;;
17917;SDS011;9084;50.956;3.106;2024-03-22T01:01:43;8.05;;;7.32;;
17917;SDS011;9084;50.956;3.106;2024-03-22T01:04:09;7.72;;;7.00;;
17917;SDS011;9084;50.956;3.106;2024-03-22T01:06:37;8.18;;;7.38;;
17917;SDS011;9084;50.956;3.106;2024-03-22T01:09:04;8.82;;;7.95;;
17917;SDS011;9084;50.956;3.106;2024-03-22T01:11:31;8.05;;;7.20;;
17917;SDS011;9084;50.956;3.106;2024-03-22T01:13:56;7.28;;;6.65;;
17917;SDS011;9084;50.956;3.106;2024-03-22T01:16:22;9.65;;;8.73;;
17917;SDS011;9084;50.956;3.106;2024-03-22T01:18:50;7.93;;;7.22;;
17917;SDS011;9084;50.956;3.106;2024-03-22T01:21:16;9.05;;;8.07;;
17917;SDS011;9084;50.956;3.106;2024-03-22T01:23:41;9.00;;;7.47;;
17917;SDS011;9084;50.956;3.106;2024-03-22T01:26:07;8.35;;;7.30;;
17917;SDS011;9084;50.956;3.106;2024-03-22T01:28:35;8.80;;;8.00;;
17917;SDS011;9084;50.956;3.106;2024-03-22T01:31:03;7.78;;;7.03;;
17917;SDS011;9084;50.956;3.106;2024-03-22T01:33:28;7.90;;;7.10;;
17917;SDS011;9084;50.956;3.106;2024-03-22T01:35:54;8.90;;;8.00;;
17917;SDS011;9084;50.956;3.106;2024-03-22T01:38:20;9.30;;;8.40;;
17917;SDS011;9084;50.956;3.106;2024-03-22T01:40:48;8.05;;;7.25;;
17917;SDS011;9084;50.956;3.106;2024-03-22T01:43:13;9.38;;;7.00;;
17917;SDS011;9084;50.956;3.106;2024-03-22T01:45:39;7.72;;;6.82;;
17917;SDS011;9084;50.956;3.106;2024-03-22T01:48:06;7.63;;;6.70;;
17917;SDS011;9084;50.956;3.106;2024-03-22T01:50:32;8.93;;;8.02;;
17917;SDS011;9084;50.956;3.106;2024-03-22T01:53:01;8.88;;;7.97;;
17917;SDS011;9084;50.956;3.106;2024-03-22T01:55:27;8.75;;;7.95;;
17917;SDS011;9084;50.956;3.106;2024-03-22T01:57:54;8.65;;;7.85;;
17917;SDS011;9084;50.956;3.106;2024-03-22T02:00:20;9.60;;;8.63;;
17917;SDS011;9084;50.956;3.106;2024-03-22T02:02:46;9.35;;;8.43;;
17917;SDS011;9084;50.956;3.106;2024-03-22T02:05:17;9.73;;;8.73;;
17917;SDS011;9084;50.956;3.106;2024-03-22T02:07:46;9.50;;;8.60;;
17917;SDS011;9084;50.956;3.106;2024-03-22T02:10:13;10.27;;;9.25;;
17917;SDS011;9084;50.956;3.106;2024-03-22T02:12:39;10.02;;;8.98;;
17917;SDS011;9084;50.956;3.106;2024-03-22T02:15:06;8.90;;;7.82;;
17917;SDS011;9084;50.956;3.106;2024-03-22T02:17:34;8.55;;;7.70;;
17917;SDS011;9084;50.956;3.106;2024-03-22T02:20:01;9.93;;;8.85;;
17917;SDS011;9084;50.956;3.106;2024-03-22T02:22:27;10.70;;;9.45;;
17917;SDS011;9084;50.956;3.106;2024-03-22T02:24:53;11.65;;;10.50;;
17917;SDS011;9084;50.956;3.106;2024-03-22T02:27:19;9.93;;;8.90;;
17917;SDS011;9084;50.956;3.106;2024-03-22T02:29:44;11.60;;;9.63;;
17917;SDS011;9084;50.956;3.106;2024-03-22T02:32:10;11.07;;;10.07;;
17917;SDS011;9084;50.956;3.106;2024-03-22T02:34:36;9.90;;;8.85;;
17917;SDS011;9084;50.956;3.106;2024-03-22T02:37:02;10.00;;;9.10;;
17917;SDS011;9084;50.956;3.106;2024-03-22T02:39:27;9.45;;;8.48;;
17917;SDS011;9084;50.956;3.106;2024-03-22T02:41:56;10.73;;;9.23;;
17917;SDS011;9084;50.956;3.106;2024-03-22T02:44:21;10.60;;;9.60;;
17917;SDS011;9084;50.956;3.106;2024-03-22T02:46:49;10.45;;;9.45;;
17917;SDS011;9084;50.956;3.106;2024-03-22T02:49:17;10.70;;;9.60;;
17917;SDS011;9084;50.956;3.106;2024-03-22T02:51:42;9.40;;;7.50;;
17917;SDS011;9084;50.956;3.106;2024-03-22T02:54:08;9.13;;;8.32;;
17917;SDS011;9084;50.956;3.106;2024-03-22T02:56:36;11.15;;;9.52;;
17917;SDS011;9084;50.956;3.106;2024-03-22T02:59:04;9.80;;;8.80;;
17917;SDS011;9084;50.956;3.106;2024-03-22T03:01:30;9.10;;;8.20;;
17917;SDS011;9084;50.956;3.106;2024-03-22T03:03:55;8.23;;;7.32;;
17917;SDS011;9084;50.956;3.106;2024-03-22T03:06:21;8.38;;;7.57;;
17917;SDS011;9084;50.956;3.106;2024-03-22T03:08:46;8.07;;;7.38;;
17917;SDS011;9084;50.956;3.106;2024-03-22T03:11:13;7.93;;;7.13;;
17917;SDS011;9084;50.956;3.106;2024-03-22T03:13:39;7.95;;;7.25;;
17917;SDS011;9084;50.956;3.106;2024-03-22T03:16:08;10.15;;;7.97;;
17917;SDS011;9084;50.956;3.106;2024-03-22T03:18:36;7.85;;;7.15;;
17917;SDS011;9084;50.956;3.106;2024-03-22T03:21:02;8.90;;;7.25;;
17917;SDS011;9084;50.956;3.106;2024-03-22T03:23:27;7.28;;;6.57;;
17917;SDS011;9084;50.956;3.106;2024-03-22T03:25:53;7.50;;;6.80;;
17917;SDS011;9084;50.956;3.106;2024-03-22T03:28:23;9.95;;;5.00;;
17917;SDS011;9084;50.956;3.106;2024-03-22T03:30:54;7.25;;;6.65;;
17917;SDS011;9084;50.956;3.106;2024-03-22T03:33:19;6.65;;;5.95;;
17917;SDS011;9084;50.956;3.106;2024-03-22T03:35:46;6.78;;;5.35;;
17917;SDS011;9084;50.956;3.106;2024-03-22T03:38:14;6.60;;;6.00;;
17917;SDS011;9084;50.956;3.106;2024-03-22T03:40:40;5.85;;;5.28;;
17917;SDS011;9084;50.956;3.106;2024-03-22T03:43:06;5.22;;;4.68;;
17917;SDS011;9084;50.956;3.106;2024-03-22T03:45:31;5.35;;;4.85;;
17917;SDS011;9084;50.956;3.106;2024-03-22T03:47:59;5.53;;;5.00;;
17917;SDS011;9084;50.956;3.106;2024-03-22T03:50:27;4.85;;;4.32;;
17917;SDS011;9084;50.956;3.106;2024-03-22T03:52:53;4.65;;;4.25;;
17917;SDS011;9084;50.956;3.106;2024-03-22T03:55:19;4.55;;;4.15;;
17917;SDS011;9084;50.956;3.106;2024-03-22T03:57:44;4.75;;;4.25;;
17917;SDS011;9084;50.956;3.106;2024-03-22T04:00:10;4.95;;;4.53;;
17917;SDS011;9084;50.956;3.106;2024-03-22T04:02:36;4.93;;;4.45;;
17917;SDS011;9084;50.956;3.106;2024-03-22T04:05:04;5.00;;;4.30;;
17917;SDS011;9084;50.956;3.106;2024-03-22T04:07:30;4.70;;;4.00;;
17917;SDS011;9084;50.956;3.106;2024-03-22T04:09:56;5.05;;;4.50;;
17917;SDS011;9084;50.956;3.106;2024-03-22T04:12:21;4.65;;;4.25;;
17917;SDS011;9084;50.956;3.106;2024-03-22T04:14:47;4.68;;;4.28;;
17917;SDS011;9084;50.956;3.106;2024-03-22T04:17:12;4.85;;;4.22;;
17917;SDS011;9084;50.956;3.106;2024-03-22T04:19:38;4.57;;;3.63;;
17917;SDS011;9084;50.956;3.106;2024-03-22T04:22:04;5.38;;;3.85;;
17917;SDS011;9084;50.956;3.106;2024-03-22T04:24:29;4.80;;;4.22;;
17917;SDS011;9084;50.956;3.106;2024-03-22T04:26:55;4.53;;;4.13;;
17917;SDS011;9084;50.956;3.106;2024-03-22T04:29:20;4.72;;;4.25;;
17917;SDS011;9084;50.956;3.106;2024-03-22T04:31:48;4.63;;;4.05;;
17917;SDS011;9084;50.956;3.106;2024-03-22T04:34:17;5.00;;;3.70;;
17917;SDS011;9084;50.956;3.106;2024-03-22T04:36:43;5.95;;;3.97;;
17917;SDS011;9084;50.956;3.106;2024-03-22T04:39:09;3.72;;;3.35;;
17917;SDS011;9084;50.956;3.106;2024-03-22T04:41:39;5.05;;;3.67;;
17917;SDS011;9084;50.956;3.106;2024-03-22T04:44:05;4.80;;;3.55;;
17917;SDS011;9084;50.956;3.106;2024-03-22T04:46:30;3.95;;;3.65;;
17917;SDS011;9084;50.956;3.106;2024-03-22T04:48:56;4.75;;;4.28;;
17917;SDS011;9084;50.956;3.106;2024-03-22T04:51:22;5.40;;;4.53;;
17917;SDS011;9084;50.956;3.106;2024-03-22T04:53:47;5.95;;;4.88;;
17917;SDS011;9084;50.956;3.106;2024-03-22T04:56:13;5.53;;;4.43;;
17917;SDS011;9084;50.956;3.106;2024-03-22T04:58:39;4.65;;;4.25;;
17917;SDS011;9084;50.956;3.106;2024-03-22T05:01:07;6.65;;;5.15;;
17917;SDS011;9084;50.956;3.106;2024-03-22T05:03:37;5.65;;;5.07;;
17917;SDS011;9084;50.956;3.106;2024-03-22T05:06:06;5.32;;;4.82;;
17917;SDS011;9084;50.956;3.106;2024-03-22T05:08:32;5.07;;;4.50;;
17917;SDS011;9084;50.956;3.106;2024-03-22T05:10:58;6.63;;;5.18;;
17917;SDS011;9084;50.956;3.106;2024-03-22T05:13:25;5.00;;;4.50;;
17917;SDS011;9084;50.956;3.106;2024-03-22T05:15:51;4.85;;;4.35;;
17917;SDS011;9084;50.956;3.106;2024-03-22T05:18:17;4.82;;;4.22;;
17917;SDS011;9084;50.956;3.106;2024-03-22T05:20:42;5.47;;;4.97;;
17917;SDS011;9084;50.956;3.106;2024-03-22T05:23:08;4.43;;;4.03;;
17917;SDS011;9084;50.956;3.106;2024-03-22T05:25:33;4.40;;;4.00;;
17917;SDS011;9084;50.956;3.106;2024-03-22T05:27:59;4.80;;;4.20;;
17917;SDS011;9084;50.956;3.106;2024-03-22T05:30:25;4.47;;;4.05;;
17917;SDS011;9084;50.956;3.106;2024-03-22T05:32:50;5.97;;;5.10;;
17917;SDS011;9084;50.956;3.106;2024-03-22T05:35:16;5.28;;;4.78;;
17917;SDS011;9084;50.956;3.106;2024-03-22T05:37:46;6.20;;;4.70;;
17917;SDS011;9084;50.956;3.106;2024-03-22T05:40:13;6.20;;;4.38;;
17917;SDS011;9084;50.956;3.106;2024-03-22T05:42:38;5.93;;;4.45;;
17917;SDS011;9084;50.956;3.106;2024-03-22T05:45:04;5.40;;;4.90;;
17917;SDS011;9084;50.956;3.106;2024-03-22T05:47:33;5.25;;;4.75;;
17917;SDS011;9084;50.956;3.106;2024-03-22T05:49:59;4.97;;;4.57;;
17917;SDS011;9084;50.956;3.106;2024-03-22T05:52:25;5.65;;;5.07;;
17917;SDS011;9084;50.956;3.106;2024-03-22T05:54:51;5.28;;;4.78;;
17917;SDS011;9084;50.956;3.106;2024-03-22T05:57:16;4.72;;;3.80;;
17917;SDS011;9084;50.956;3.106;2024-03-22T05:59:42;4.55;;;4.15;;
17917;SDS011;9084;50.956;3.106;2024-03-22T06:02:10;5.03;;;4.53;;
17917;SDS011;9084;50.956;3.106;2024-03-22T06:04:40;5.80;;;4.53;;
17917;SDS011;9084;50.956;3.106;2024-03-22T06:07:06;4.45;;;4.00;;
17917;SDS011;9084;50.956;3.106;2024-03-22T06:09:31;4.93;;;3.72;;
17917;SDS011;9084;50.956;3.106;2024-03-22T06:12:10;4.72;;;4.15;;
17917;SDS011;9084;50.956;3.106;2024-03-22T06:14:43;4.95;;;4.43;;
17917;SDS011;9084;50.956;3.106;2024-03-22T06:17:09;4.68;;;4.25;;
17917;SDS011;9084;50.956;3.106;2024-03-22T06:19:37;4.63;;;4.22;;
17917;SDS011;9084;50.956;3.106;2024-03-22T06:22:03;4.55;;;4.07;;
17917;SDS011;9084;50.956;3.106;2024-03-22T06:24:32;4.25;;;3.85;;
17917;SDS011;9084;50.956;3.106;2024-03-22T06:26:58;4.97;;;4.38;;
17917;SDS011;9084;50.956;3.106;2024-03-22T06:29:23;4.90;;;4.18;;
17917;SDS011;9084;50.956;3.106;2024-03-22T06:31:49;5.75;;;4.45;;
17917;SDS011;9084;50.956;3.106;2024-03-22T06:34:17;4.32;;;3.45;;
17917;SDS011;9084;50.956;3.106;2024-03-22T06:36:45;5.53;;;4.03;;
17917;SDS011;9084;50.956;3.106;2024-03-22T06:39:12;4.88;;;4.38;;
17917;SDS011;9084;50.956;3.106;2024-03-22T06:41:37;6.88;;;4.32;;
17917;SDS011;9084;50.956;3.106;2024-03-22T06:44:05;6.18;;;4.00;;
17917;SDS011;9084;50.956;3.106;2024-03-22T06:46:31;5.00;;;4.28;;
17917;SDS011;9084;50.956;3.106;2024-03-22T06:48:59;6.22;;;5.05;;
17917;SDS011;9084;50.956;3.106;2024-03-22T06:51:27;5.80;;;5.10;;
17917;SDS011;9084;50.956;3.106;2024-03-22T06:53:52;5.60;;;4.65;;
17917;SDS011;9084;50.956;3.106;2024-03-22T06:56:18;7.88;;;5.85;;
17917;SDS011;9084;50.956;3.106;2024-03-22T06:58:46;5.28;;;4.80;;
17917;SDS011;9084;50.956;3.106;2024-03-22T07:01:12;6.43;;;5.82;;
17917;SDS011;9084;50.956;3.106;2024-03-22T07:03:37;6.47;;;5.35;;
17917;SDS011;9084;50.956;3.106;2024-03-22T07:06:03;8.25;;;6.07;;
17917;SDS011;9084;50.956;3.106;2024-03-22T07:08:33;7.88;;;6.03;;
17917;SDS011;9084;50.956;3.106;2024-03-22T07:10:59;6.93;;;6.22;;
17917;SDS011;9084;50.956;3.106;2024-03-22T07:13:24;9.18;;;5.75;;
17917;SDS011;9084;50.956;3.106;2024-03-22T07:15:50;7.95;;;5.47;;
17917;SDS011;9084;50.956;3.106;2024-03-22T07:18:16;7.03;;;6.32;;
17917;SDS011;9084;50.956;3.106;2024-03-22T07:20:41;7.10;;;5.68;;
17917;SDS011;9084;50.956;3.106;2024-03-22T07:23:08;10.75;;;5.60;;
17917;SDS011;9084;50.956;3.106;2024-03-22T07:25:33;6.82;;;5.53;;
17917;SDS011;9084;50.956;3.106;2024-03-22T07:27:59;8.05;;;5.40;;
17917;SDS011;9084;50.956;3.106;2024-03-22T07:30:25;8.07;;;5.10;;
17917;SDS011;9084;50.956;3.106;2024-03-22T07:32:50;6.63;;;4.88;;
17917;SDS011;9084;50.956;3.106;2024-03-22T07:35:16;6.25;;;5.10;;
17917;SDS011;9084;50.956;3.106;2024-03-22T07:37:42;6.47;;;5.18;;
17917;SDS011;9084;50.956;3.106;2024-03-22T07:40:09;8.07;;;5.00;;
17917;SDS011;9084;50.956;3.106;2024-03-22T07:42:35;8.48;;;5.43;;
17917;SDS011;9084;50.956;3.106;2024-03-22T07:45:01;7.03;;;5.43;;
17917;SDS011;9084;50.956;3.106;2024-03-22T07:47:27;5.90;;;4.82;;
17917;SDS011;9084;50.956;3.106;2024-03-22T07:49:55;5.53;;;5.03;;
17917;SDS011;9084;50.956;3.106;2024-03-22T07:52:21;7.47;;;4.80;;
17917;SDS011;9084;50.956;3.106;2024-03-22T07:54:46;7.22;;;5.25;;
17917;SDS011;9084;50.956;3.106;2024-03-22T07:57:12;5.32;;;4.82;;
17917;SDS011;9084;50.956;3.106;2024-03-22T07:59:38;5.00;;;3.70;;
17917;SDS011;9084;50.956;3.106;2024-03-22T08:02:08;4.57;;;3.45;;
17917;SDS011;9084;50.956;3.106;2024-03-22T08:04:37;4.85;;;4.18;;
17917;SDS011;9084;50.956;3.106;2024-03-22T08:07:03;4.38;;;3.67;;
17917;SDS011;9084;50.956;3.106;2024-03-22T08:09:31;8.88;;;4.15;;
17917;SDS011;9084;50.956;3.106;2024-03-22T08:11:56;5.32;;;3.67;;
17917;SDS011;9084;50.956;3.106;2024-03-22T08:14:22;7.40;;;3.97;;
17917;SDS011;9084;50.956;3.106;2024-03-22T08:16:48;8.00;;;4.53;;
17917;SDS011;9084;50.956;3.106;2024-03-22T08:19:13;4.82;;;3.55;;
17917;SDS011;9084;50.956;3.106;2024-03-22T08:21:39;5.32;;;3.67;;
17917;SDS011;9084;50.956;3.106;2024-03-22T08:24:05;5.60;;;3.17;;
17917;SDS011;9084;50.956;3.106;2024-03-22T08:26:31;4.65;;;3.17;;
17917;SDS011;9084;50.956;3.106;2024-03-22T08:28:56;4.60;;;3.17;;
17917;SDS011;9084;50.956;3.106;2024-03-22T08:31:22;5.70;;;4.45;;
17917;SDS011;9084;50.956;3.106;2024-03-22T08:33:51;4.07;;;3.03;;
17917;SDS011;9084;50.956;3.106;2024-03-22T08:36:20;6.65;;;2.90;;
17917;SDS011;9084;50.956;3.106;2024-03-22T08:38:46;8.45;;;2.53;;
17917;SDS011;9084;50.956;3.106;2024-03-22T08:41:12;5.82;;;3.00;;
17917;SDS011;9084;50.956;3.106;2024-03-22T08:43:38;6.13;;;3.67;;
17917;SDS011;9084;50.956;3.106;2024-03-22T08:46:06;5.13;;;2.80;;
17917;SDS011;9084;50.956;3.106;2024-03-22T08:48:34;6.63;;;3.00;;
17917;SDS011;9084;50.956;3.106;2024-03-22T08:50:59;4.68;;;3.03;;
17917;SDS011;9084;50.956;3.106;2024-03-22T08:53:27;4.75;;;3.17;;
17917;SDS011;9084;50.956;3.106;2024-03-22T08:55:53;6.13;;;2.85;;
17917;SDS011;9084;50.956;3.106;2024-03-22T08:58:19;2.78;;;2.15;;
17917;SDS011;9084;50.956;3.106;2024-03-22T09:00:44;5.35;;;2.35;;
17917;SDS011;9084;50.956;3.106;2024-03-22T09:03:10;4.35;;;2.30;;
17917;SDS011;9084;50.956;3.106;2024-03-22T09:05:39;5.13;;;2.65;;
17917;SDS011;9084;50.956;3.106;2024-03-22T09:08:06;5.25;;;2.80;;
17917;SDS011;9084;50.956;3.106;2024-03-22T09:10:31;3.75;;;2.22;;
17917;SDS011;9084;50.956;3.106;2024-03-22T09:12:57;5.05;;;2.30;;
17917;SDS011;9084;50.956;3.106;2024-03-22T09:15:23;4.88;;;2.00;;
17917;SDS011;9084;50.956;3.106;2024-03-22T09:17:52;3.17;;;1.75;;
17917;SDS011;9084;50.956;3.106;2024-03-22T09:20:20;4.30;;;1.75;;
17917;SDS011;9084;50.956;3.106;2024-03-22T09:22:46;4.75;;;2.17;;
17917;SDS011;9084;50.956;3.106;2024-03-22T09:25:14;3.88;;;1.70;;
17917;SDS011;9084;50.956;3.106;2024-03-22T09:27:42;4.20;;;1.95;;
17917;SDS011;9084;50.956;3.106;2024-03-22T09:30:10;6.90;;;2.47;;
17917;SDS011;9084;50.956;3.106;2024-03-22T09:32:36;4.50;;;2.45;;
17917;SDS011;9084;50.956;3.106;2024-03-22T09:35:02;6.45;;;2.33;;
17917;SDS011;9084;50.956;3.106;2024-03-22T09:37:27;3.45;;;2.33;;
17917;SDS011;9084;50.956;3.106;2024-03-22T09:39:57;4.05;;;2.25;;
17917;SDS011;9084;50.956;3.106;2024-03-22T09:42:23;4.10;;;2.05;;
17917;SDS011;9084;50.956;3.106;2024-03-22T09:44:51;2.80;;;1.63;;
17917;SDS011;9084;50.956;3.106;2024-03-22T09:47:17;6.20;;;2.25;;
17917;SDS011;9084;50.956;3.106;2024-03-22T09:49:46;5.03;;;2.30;;
17917;SDS011;9084;50.956;3.106;2024-03-22T09:52:13;3.58;;;2.30;;
17917;SDS011;9084;50.956;3.106;2024-03-22T09:54:42;6.03;;;2.42;;
17917;SDS011;9084;50.956;3.106;2024-03-22T09:57:09;6.30;;;2.60;;
17917;SDS011;9084;50.956;3.106;2024-03-22T09:59:43;5.55;;;2.88;;
17917;SDS011;9084;50.956;3.106;2024-03-22T10:02:10;4.55;;;2.58;;
17917;SDS011;9084;50.956;3.106;2024-03-22T10:04:42;4.03;;;2.58;;
17917;SDS011;9084;50.956;3.106;2024-03-22T10:07:08;5.28;;;2.17;;
17917;SDS011;9084;50.956;3.106;2024-03-22T10:09:38;4.28;;;2.33;;
17917;SDS011;9084;50.956;3.106;2024-03-22T10:12:04;4.45;;;3.40;;
17917;SDS011;9084;50.956;3.106;2024-03-22T10:14:30;5.32;;;2.92;;
17917;SDS011;9084;50.956;3.106;2024-03-22T10:16:58;4.50;;;2.83;;
17917;SDS011;9084;50.956;3.106;2024-03-22T10:19:24;6.35;;;2.92;;
17917;SDS011;9084;50.956;3.106;2024-03-22T10:22:04;6.75;;;2.97;;
17917;SDS011;9084;50.956;3.106;2024-03-22T10:24:33;4.13;;;2.63;;
17917;SDS011;9084;50.956;3.106;2024-03-22T10:26:59;5.60;;;3.10;;
17917;SDS011;9084;50.956;3.106;2024-03-22T10:29:25;4.65;;;3.28;;
17917;SDS011;9084;50.956;3.106;2024-03-22T10:31:51;5.05;;;2.97;;
17917;SDS011;9084;50.956;3.106;2024-03-22T10:34:18;5.40;;;3.47;;
17917;SDS011;9084;50.956;3.106;2024-03-22T10:36:46;6.47;;;3.67;;
17917;SDS011;9084;50.956;3.106;2024-03-22T10:39:17;4.68;;;3.78;;
17917;SDS011;9084;50.956;3.106;2024-03-22T10:41:51;8.55;;;3.45;;
17917;SDS011;9084;50.956;3.106;2024-03-22T10:44:19;4.97;;;3.60;;
17917;SDS011;9084;50.956;3.106;2024-03-22T10:46:45;7.05;;;4.03;;
17917;SDS011;9084;50.956;3.106;2024-03-22T10:49:14;7.35;;;4.38;;
17917;SDS011;9084;50.956;3.106;2024-03-22T10:51:42;7.63;;;5.70;;
17917;SDS011;9084;50.956;3.106;2024-03-22T10:54:17;4.90;;;4.20;;
17917;SDS011;9084;50.956;3.106;2024-03-22T10:56:45;6.55;;;4.45;;
17917;SDS011;9084;50.956;3.106;2024-03-22T10:59:13;7.35;;;4.15;;
17917;SDS011;9084;50.956;3.106;2024-03-22T11:01:45;8.75;;;4.95;;
17917;SDS011;9084;50.956;3.106;2024-03-22T11:04:11;8.10;;;5.15;;
17917;SDS011;9084;50.956;3.106;2024-03-22T11:06:47;7.85;;;4.43;;
17917;SDS011;9084;50.956;3.106;2024-03-22T11:09:22;10.35;;;5.50;;
17917;SDS011;9084;50.956;3.106;2024-03-22T11:11:53;7.13;;;4.32;;
17917;SDS011;9084;50.956;3.106;2024-03-22T11:14:20;8.60;;;4.50;;
17917;SDS011;9084;50.956;3.106;2024-03-22T11:16:48;9.60;;;5.50;;
17917;SDS011;9084;50.956;3.106;2024-03-22T11:19:14;5.10;;;4.60;;
17917;SDS011;9084;50.956;3.106;2024-03-22T11:21:40;7.35;;;4.38;;
17917;SDS011;9084;50.956;3.106;2024-03-22T11:24:05;6.28;;;3.95;;
17917;SDS011;9084;50.956;3.106;2024-03-22T11:26:34;6.28;;;4.30;;
17917;SDS011;9084;50.956;3.106;2024-03-22T11:29:00;9.15;;;4.28;;
17917;SDS011;9084;50.956;3.106;2024-03-22T11:31:26;9.15;;;4.45;;
17917;SDS011;9084;50.956;3.106;2024-03-22T11:33:53;8.75;;;4.07;;
17917;SDS011;9084;50.956;3.106;2024-03-22T11:36:19;6.20;;;3.78;;
17917;SDS011;9084;50.956;3.106;2024-03-22T11:38:45;6.93;;;3.85;;
17917;SDS011;9084;50.956;3.106;2024-03-22T11:41:14;8.77;;;5.00;;
17917;SDS011;9084;50.956;3.106;2024-03-22T11:43:43;6.47;;;3.65;;
17917;SDS011;9084;50.956;3.106;2024-03-22T11:46:18;5.68;;;4.10;;
17917;SDS011;9084;50.956;3.106;2024-03-22T11:48:44;5.43;;;3.95;;
17917;SDS011;9084;50.956;3.106;2024-03-22T11:51:10;6.55;;;4.63;;
17917;SDS011;9084;50.956;3.106;2024-03-22T11:53:38;5.10;;;4.50;;
17917;SDS011;9084;50.956;3.106;2024-03-22T11:56:15;7.38;;;4.10;;
17917;SDS011;9084;50.956;3.106;2024-03-22T11:58:43;4.90;;;3.85;;
17917;SDS011;9084;50.956;3.106;2024-03-22T12:01:10;4.55;;;3.70;;
17917;SDS011;9084;50.956;3.106;2024-03-22T12:03:35;4.65;;;4.15;;
17917;SDS011;9084;50.956;3.106;2024-03-22T12:06:01;4.53;;;4.07;;
17917;SDS011;9084;50.956;3.106;2024-03-22T12:08:31;5.65;;;4.03;;
17917;SDS011;9084;50.956;3.106;2024-03-22T12:10:56;7.78;;;5.20;;
17917;SDS011;9084;50.956;3.106;2024-03-22T12:13:24;5.05;;;4.18;;
17917;SDS011;9084;50.956;3.106;2024-03-22T12:15:50;7.97;;;4.20;;
17917;SDS011;9084;50.956;3.106;2024-03-22T12:18:15;6.03;;;3.95;;
17917;SDS011;9084;50.956;3.106;2024-03-22T12:20:41;4.75;;;4.07;;
17917;SDS011;9084;50.956;3.106;2024-03-22T12:23:09;4.75;;;4.30;;
17917;SDS011;9084;50.956;3.106;2024-03-22T12:25:35;6.32;;;4.60;;
17917;SDS011;9084;50.956;3.106;2024-03-22T12:28:03;6.00;;;4.03;;
17917;SDS011;9084;50.956;3.106;2024-03-22T12:30:31;9.48;;;4.40;;
17917;SDS011;9084;50.956;3.106;2024-03-22T12:32:58;5.32;;;4.32;;
17917;SDS011;9084;50.956;3.106;2024-03-22T12:35:24;6.22;;;4.72;;
17917;SDS011;9084;50.956;3.106;2024-03-22T12:37:53;6.00;;;4.43;;
17917;SDS011;9084;50.956;3.106;2024-03-22T12:40:18;5.95;;;4.45;;
17917;SDS011;9084;50.956;3.106;2024-03-22T12:42:44;5.28;;;4.68;;
17917;SDS011;9084;50.956;3.106;2024-03-22T12:45:10;5.13;;;3.92;;
17917;SDS011;9084;50.956;3.106;2024-03-22T12:47:38;5.97;;;4.38;;
17917;SDS011;9084;50.956;3.106;2024-03-22T12:50:04;4.10;;;3.80;;
17917;SDS011;9084;50.956;3.106;2024-03-22T12:52:30;4.50;;;4.10;;
17917;SDS011;9084;50.956;3.106;2024-03-22T12:54:58;5.30;;;4.68;;
17917;SDS011;9084;50.956;3.106;2024-03-22T12:57:26;6.07;;;4.55;;
17917;SDS011;9084;50.956;3.106;2024-03-22T12:59:52;8.13;;;4.30;;
17917;SDS011;9084;50.956;3.106;2024-03-22T13:02:17;7.68;;;5.13;;
17917;SDS011;9084;50.956;3.106;2024-03-22T13:04:45;5.25;;;4.03;;
17917;SDS011;9084;50.956;3.106;2024-03-22T13:07:15;4.57;;;4.18;;
17917;SDS011;9084;50.956;3.106;2024-03-22T13:09:43;3.92;;;3.63;;
17917;SDS011;9084;50.956;3.106;2024-03-22T13:12:09;4.68;;;3.63;;
17917;SDS011;9084;50.956;3.106;2024-03-22T13:14:34;4.72;;;3.97;;
17917;SDS011;9084;50.956;3.106;2024-03-22T13:17:00;5.13;;;3.83;;
17917;SDS011;9084;50.956;3.106;2024-03-22T13:19:28;4.05;;;3.65;;
17917;SDS011;9084;50.956;3.106;2024-03-22T13:21:56;4.07;;;3.65;;
17917;SDS011;9084;50.956;3.106;2024-03-22T13:24:24;3.40;;;3.00;;
17917;SDS011;9084;50.956;3.106;2024-03-22T13:26:52;3.58;;;2.85;;
17917;SDS011;9084;50.956;3.106;2024-03-22T13:29:17;4.30;;;3.90;;
17917;SDS011;9084;50.956;3.106;2024-03-22T13:31:43;3.83;;;3.25;;
17917;SDS011;9084;50.956;3.106;2024-03-22T13:34:09;5.20;;;3.78;;
17917;SDS011;9084;50.956;3.106;2024-03-22T13:36:34;3.78;;;3.35;;
17917;SDS011;9084;50.956;3.106;2024-03-22T13:39:02;4.22;;;3.38;;
17917;SDS011;9084;50.956;3.106;2024-03-22T13:41:31;4.35;;;3.38;;
17917;SDS011;9084;50.956;3.106;2024-03-22T13:43:56;4.00;;;3.70;;
17917;SDS011;9084;50.956;3.106;2024-03-22T13:46:23;3.75;;;3.00;;
17917;SDS011;9084;50.956;3.106;2024-03-22T13:48:50;5.00;;;3.15;;
17917;SDS011;9084;50.956;3.106;2024-03-22T13:51:15;3.25;;;2.95;;
17917;SDS011;9084;50.956;3.106;2024-03-22T13:53:43;3.75;;;3.38;;
17917;SDS011;9084;50.956;3.106;2024-03-22T13:56:09;4.50;;;3.13;;
17917;SDS011;9084;50.956;3.106;2024-03-22T13:58:37;3.38;;;3.03;;
17917;SDS011;9084;50.956;3.106;2024-03-22T14:01:03;4.18;;;3.55;;
17917;SDS011;9084;50.956;3.106;2024-03-22T14:03:29;3.78;;;3.47;;
17917;SDS011;9084;50.956;3.106;2024-03-22T14:05:55;3.63;;;3.10;;
17917;SDS011;9084;50.956;3.106;2024-03-22T14:08:21;3.40;;;3.10;;
17917;SDS011;9084;50.956;3.106;2024-03-22T14:10:46;3.80;;;3.47;;
17917;SDS011;9084;50.956;3.106;2024-03-22T14:13:12;3.72;;;3.42;;
17917;SDS011;9084;50.956;3.106;2024-03-22T14:15:40;3.92;;;3.58;;
17917;SDS011;9084;50.956;3.106;2024-03-22T14:18:06;4.85;;;4.28;;
17917;SDS011;9084;50.956;3.106;2024-03-22T14:20:31;4.15;;;3.83;;
17917;SDS011;9084;50.956;3.106;2024-03-22T14:22:59;5.63;;;3.70;;
17917;SDS011;9084;50.956;3.106;2024-03-22T14:25:29;4.47;;;4.15;;
17917;SDS011;9084;50.956;3.106;2024-03-22T14:27:56;4.13;;;3.75;;
17917;SDS011;9084;50.956;3.106;2024-03-22T14:30:21;4.15;;;3.83;;
17917;SDS011;9084;50.956;3.106;2024-03-22T14:32:47;3.90;;;3.60;;
17917;SDS011;9084;50.956;3.106;2024-03-22T14:35:15;3.45;;;3.15;;
17917;SDS011;9084;50.956;3.106;2024-03-22T14:37:40;4.10;;;3.63;;
17917;SDS011;9084;50.956;3.106;2024-03-22T14:40:06;5.03;;;4.43;;
17917;SDS011;9084;50.956;3.106;2024-03-22T14:42:35;4.18;;;3.88;;
17917;SDS011;9084;50.956;3.106;2024-03-22T14:45:04;4.00;;;3.70;;
17917;SDS011;9084;50.956;3.106;2024-03-22T14:47:30;3.92;;;3.63;;
17917;SDS011;9084;50.956;3.106;2024-03-22T14:49:58;3.90;;;3.20;;
17917;SDS011;9084;50.956;3.106;2024-03-22T14:52:26;3.25;;;3.05;;
17917;SDS011;9084;50.956;3.106;2024-03-22T14:54:51;3.05;;;2.85;;
17917;SDS011;9084;50.956;3.106;2024-03-22T14:57:18;3.58;;;3.28;;